sensor_id;sensor_type;location;lat;lon;timestamp;P1;durP1;ratioP1;P2;durP2;ratioP2
75012;SDS011;63567;49.956;20.130;2023-04-10T00:01:13;44.25;;;23.73;;
75012;SDS011;63567;49.956;20.130;2023-04-10T00:03:38;45.07;;;24.60;;
75012;SDS011;63567;49.956;20.130;2023-04-10T00:06:03;42.85;;;24.67;;
75012;SDS011;63567;49.956;20.130;2023-04-10T00:08:29;46.40;;;23.77;;
75012;SDS011;63567;49.956;20.130;2023-04-10T00:10:55;49.35;;;25.27;;
75012;SDS011;63567;49.956;20.130;2023-04-10T00:13:21;46.42;;;25.02;;
75012;SDS011;63567;49.956;20.130;2023-04-10T00:15:46;50.92;;;26.00;;
75012;SDS011;63567;49.956;20.130;2023-04-10T00:18:12;48.90;;;25.40;;
75012;SDS011;63567;49.956;20.130;2023-04-10T00:20:38;51.28;;;26.02;;
75012;SDS011;63567;49.956;20.130;2023-04-10T00:23:03;49.45;;;25.70;;
75012;SDS011;63567;49.956;20.130;2023-04-10T00:25:28;47.00;;;25.20;;
75012;SDS011;63567;49.956;20.130;2023-04-10T00:27:54;51.72;;;26.95;;
75012;SDS011;63567;49.956;20.130;2023-04-10T00:30:20;53.92;;;26.98;;
75012;SDS011;63567;49.956;20.130;2023-04-10T00:32:45;51.42;;;25.63;;
75012;SDS011;63567;49.956;20.130;2023-04-10T00:35:11;48.92;;;26.25;;
75012;SDS011;63567;49.956;20.130;2023-04-10T00:37:36;55.30;;;27.83;;
75012;SDS011;63567;49.956;20.130;2023-04-10T00:40:02;51.75;;;26.52;;
75012;SDS011;63567;49.956;20.130;2023-04-10T00:42:28;57.10;;;29.35;;
75012;SDS011;63567;49.956;20.130;2023-04-10T00:44:53;51.42;;;27.23;;
75012;SDS011;63567;49.956;20.130;2023-04-10T00:47:19;55.00;;;28.60;;
75012;SDS011;63567;49.956;20.130;2023-04-10T00:49:45;57.28;;;27.70;;
75012;SDS011;63567;49.956;20.130;2023-04-10T00:52:10;58.15;;;29.50;;
75012;SDS011;63567;49.956;20.130;2023-04-10T00:54:36;56.92;;;29.13;;
75012;SDS011;63567;49.956;20.130;2023-04-10T00:57:02;55.38;;;26.40;;
75012;SDS011;63567;49.956;20.130;2023-04-10T00:59:28;55.55;;;28.27;;
75012;SDS011;63567;49.956;20.130;2023-04-10T01:01:54;59.55;;;29.88;;
75012;SDS011;63567;49.956;20.130;2023-04-10T01:04:20;56.58;;;28.90;;
75012;SDS011;63567;49.956;20.130;2023-04-10T01:12:34;61.10;;;30.38;;
75012;SDS011;63567;49.956;20.130;2023-04-10T01:17:41;58.63;;;29.88;;
75012;SDS011;63567;49.956;20.130;2023-04-10T01:20:15;63.55;;;29.85;;
75012;SDS011;63567;49.956;20.130;2023-04-10T01:25:50;67.75;;;31.88;;
75012;SDS011;63567;49.956;20.130;2023-04-10T01:28:23;74.00;;;32.20;;
75012;SDS011;63567;49.956;20.130;2023-04-10T01:31:12;72.53;;;31.35;;
75012;SDS011;63567;49.956;20.130;2023-04-10T01:33:42;69.63;;;31.48;;
75012;SDS011;63567;49.956;20.130;2023-04-10T01:36:15;70.93;;;30.80;;
75012;SDS011;63567;49.956;20.130;2023-04-10T01:38:46;80.53;;;35.92;;
75012;SDS011;63567;49.956;20.130;2023-04-10T01:41:14;79.35;;;35.17;;
75012;SDS011;63567;49.956;20.130;2023-04-10T01:43:40;71.93;;;33.40;;
75012;SDS011;63567;49.956;20.130;2023-04-10T01:46:07;76.03;;;34.95;;
75012;SDS011;63567;49.956;20.130;2023-04-10T01:48:32;73.57;;;32.78;;
75012;SDS011;63567;49.956;20.130;2023-04-10T01:51:02;76.97;;;35.40;;
75012;SDS011;63567;49.956;20.130;2023-04-10T01:53:29;74.15;;;33.67;;
75012;SDS011;63567;49.956;20.130;2023-04-10T01:55:55;79.38;;;35.53;;
75012;SDS011;63567;49.956;20.130;2023-04-10T01:58:21;77.78;;;35.63;;
75012;SDS011;63567;49.956;20.130;2023-04-10T02:00:46;77.82;;;34.25;;
75012;SDS011;63567;49.956;20.130;2023-04-10T02:03:12;81.95;;;35.13;;
75012;SDS011;63567;49.956;20.130;2023-04-10T02:05:46;88.45;;;36.90;;
75012;SDS011;63567;49.956;20.130;2023-04-10T02:08:35;79.32;;;34.78;;
75012;SDS011;63567;49.956;20.130;2023-04-10T02:13:46;81.88;;;34.85;;
75012;SDS011;63567;49.956;20.130;2023-04-10T02:16:14;82.70;;;34.95;;
75012;SDS011;63567;49.956;20.130;2023-04-10T02:18:43;89.82;;;36.17;;
75012;SDS011;63567;49.956;20.130;2023-04-10T02:21:10;83.85;;;34.60;;
75012;SDS011;63567;49.956;20.130;2023-04-10T02:23:35;90.03;;;36.42;;
75012;SDS011;63567;49.956;20.130;2023-04-10T02:26:05;99.15;;;38.17;;
75012;SDS011;63567;49.956;20.130;2023-04-10T02:28:31;95.00;;;37.75;;
75012;SDS011;63567;49.956;20.130;2023-04-10T02:30:57;98.30;;;37.33;;
75012;SDS011;63567;49.956;20.130;2023-04-10T02:33:22;94.80;;;33.53;;
75012;SDS011;63567;49.956;20.130;2023-04-10T02:35:47;109.93;;;36.57;;
75012;SDS011;63567;49.956;20.130;2023-04-10T02:38:14;98.30;;;37.28;;
75012;SDS011;63567;49.956;20.130;2023-04-10T02:40:39;107.05;;;37.65;;
75012;SDS011;63567;49.956;20.130;2023-04-10T02:43:04;121.60;;;37.27;;
75012;SDS011;63567;49.956;20.130;2023-04-10T02:45:30;114.47;;;37.85;;
75012;SDS011;63567;49.956;20.130;2023-04-10T02:47:57;134.57;;;39.67;;
75012;SDS011;63567;49.956;20.130;2023-04-10T02:50:22;106.70;;;36.97;;
75012;SDS011;63567;49.956;20.130;2023-04-10T02:52:48;111.97;;;37.42;;
75012;SDS011;63567;49.956;20.130;2023-04-10T02:55:13;118.60;;;40.03;;
75012;SDS011;63567;49.956;20.130;2023-04-10T02:57:39;126.13;;;40.50;;
75012;SDS011;63567;49.956;20.130;2023-04-10T03:00:05;147.15;;;40.17;;
75012;SDS011;63567;49.956;20.130;2023-04-10T03:02:31;129.07;;;39.72;;
75012;SDS011;63567;49.956;20.130;2023-04-10T03:04:57;122.65;;;39.67;;
75012;SDS011;63567;49.956;20.130;2023-04-10T03:07:24;128.32;;;38.92;;
75012;SDS011;63567;49.956;20.130;2023-04-10T03:09:49;133.45;;;41.33;;
75012;SDS011;63567;49.956;20.130;2023-04-10T03:12:15;129.50;;;37.80;;
75012;SDS011;63567;49.956;20.130;2023-04-10T03:14:40;115.72;;;36.13;;
75012;SDS011;63567;49.956;20.130;2023-04-10T03:17:06;117.07;;;38.77;;
75012;SDS011;63567;49.956;20.130;2023-04-10T03:19:31;122.23;;;37.87;;
75012;SDS011;63567;49.956;20.130;2023-04-10T03:21:56;118.03;;;35.10;;
75012;SDS011;63567;49.956;20.130;2023-04-10T03:24:22;108.63;;;34.90;;
75012;SDS011;63567;49.956;20.130;2023-04-10T03:26:47;133.50;;;38.30;;
75012;SDS011;63567;49.956;20.130;2023-04-10T03:29:12;125.33;;;37.23;;
75012;SDS011;63567;49.956;20.130;2023-04-10T03:31:42;120.18;;;33.78;;
75012;SDS011;63567;49.956;20.130;2023-04-10T03:34:08;116.63;;;34.65;;
75012;SDS011;63567;49.956;20.130;2023-04-10T03:36:33;156.73;;;39.83;;
75012;SDS011;63567;49.956;20.130;2023-04-10T03:38:58;135.53;;;35.93;;
75012;SDS011;63567;49.956;20.130;2023-04-10T03:41:24;133.90;;;37.28;;
75012;SDS011;63567;49.956;20.130;2023-04-10T03:43:49;135.20;;;36.10;;
75012;SDS011;63567;49.956;20.130;2023-04-10T03:46:15;157.95;;;39.22;;
75012;SDS011;63567;49.956;20.130;2023-04-10T03:48:40;191.38;;;40.28;;
75012;SDS011;63567;49.956;20.130;2023-04-10T03:51:06;184.45;;;41.88;;
75012;SDS011;63567;49.956;20.130;2023-04-10T03:53:32;139.70;;;36.30;;
75012;SDS011;63567;49.956;20.130;2023-04-10T03:56:00;157.05;;;37.28;;
75012;SDS011;63567;49.956;20.130;2023-04-10T03:58:27;197.65;;;40.72;;
75012;SDS011;63567;49.956;20.130;2023-04-10T04:00:52;179.35;;;38.53;;
75012;SDS011;63567;49.956;20.130;2023-04-10T04:03:18;204.48;;;42.90;;
75012;SDS011;63567;49.956;20.130;2023-04-10T04:05:43;216.40;;;42.50;;
75012;SDS011;63567;49.956;20.130;2023-04-10T04:08:08;126.30;;;35.38;;
75012;SDS011;63567;49.956;20.130;2023-04-10T04:10:34;199.88;;;42.17;;
75012;SDS011;63567;49.956;20.130;2023-04-10T04:12:59;122.77;;;32.53;;
75012;SDS011;63567;49.956;20.130;2023-04-10T04:15:25;133.97;;;34.93;;
75012;SDS011;63567;49.956;20.130;2023-04-10T04:17:50;194.67;;;43.17;;
75012;SDS011;63567;49.956;20.130;2023-04-10T04:20:16;180.02;;;42.35;;
75012;SDS011;63567;49.956;20.130;2023-04-10T04:22:41;111.65;;;31.33;;
75012;SDS011;63567;49.956;20.130;2023-04-10T04:25:06;179.53;;;41.40;;
75012;SDS011;63567;49.956;20.130;2023-04-10T04:27:34;183.55;;;40.55;;
75012;SDS011;63567;49.956;20.130;2023-04-10T04:30:00;129.73;;;35.38;;
75012;SDS011;63567;49.956;20.130;2023-04-10T04:32:26;114.40;;;32.67;;
75012;SDS011;63567;49.956;20.130;2023-04-10T04:34:52;177.43;;;39.17;;
75012;SDS011;63567;49.956;20.130;2023-04-10T04:37:17;127.10;;;34.00;;
75012;SDS011;63567;49.956;20.130;2023-04-10T04:39:42;109.60;;;30.83;;
75012;SDS011;63567;49.956;20.130;2023-04-10T04:42:08;126.50;;;33.53;;
75012;SDS011;63567;49.956;20.130;2023-04-10T04:44:33;175.13;;;39.20;;
75012;SDS011;63567;49.956;20.130;2023-04-10T04:46:59;251.57;;;44.92;;
75012;SDS011;63567;49.956;20.130;2023-04-10T04:49:24;123.83;;;34.40;;
75012;SDS011;63567;49.956;20.130;2023-04-10T04:51:50;167.23;;;38.00;;
75012;SDS011;63567;49.956;20.130;2023-04-10T04:54:15;238.90;;;43.08;;
75012;SDS011;63567;49.956;20.130;2023-04-10T04:56:40;198.87;;;40.37;;
75012;SDS011;63567;49.956;20.130;2023-04-10T04:59:06;202.63;;;39.97;;
75012;SDS011;63567;49.956;20.130;2023-04-10T05:01:31;117.63;;;32.70;;
75012;SDS011;63567;49.956;20.130;2023-04-10T05:03:56;143.93;;;33.60;;
75012;SDS011;63567;49.956;20.130;2023-04-10T05:06:22;146.13;;;34.73;;
75012;SDS011;63567;49.956;20.130;2023-04-10T05:08:47;222.90;;;38.70;;
75012;SDS011;63567;49.956;20.130;2023-04-10T05:11:13;119.67;;;31.17;;
75012;SDS011;63567;49.956;20.130;2023-04-10T05:13:38;114.20;;;31.27;;
75012;SDS011;63567;49.956;20.130;2023-04-10T05:16:03;99.03;;;29.13;;
75012;SDS011;63567;49.956;20.130;2023-04-10T05:18:29;121.43;;;31.92;;
75012;SDS011;63567;49.956;20.130;2023-04-10T05:20:54;112.13;;;30.37;;
75012;SDS011;63567;49.956;20.130;2023-04-10T05:23:20;115.13;;;29.90;;
75012;SDS011;63567;49.956;20.130;2023-04-10T05:25:45;88.07;;;27.20;;
75012;SDS011;63567;49.956;20.130;2023-04-10T05:28:10;105.20;;;29.45;;
75012;SDS011;63567;49.956;20.130;2023-04-10T05:30:36;91.93;;;27.53;;
75012;SDS011;63567;49.956;20.130;2023-04-10T05:33:01;87.25;;;27.05;;
75012;SDS011;63567;49.956;20.130;2023-04-10T05:35:26;90.35;;;26.67;;
75012;SDS011;63567;49.956;20.130;2023-04-10T05:37:52;96.88;;;28.60;;
75012;SDS011;63567;49.956;20.130;2023-04-10T05:40:17;91.93;;;27.83;;
75012;SDS011;63567;49.956;20.130;2023-04-10T05:42:42;120.17;;;29.43;;
75012;SDS011;63567;49.956;20.130;2023-04-10T05:45:08;125.00;;;31.47;;
75012;SDS011;63567;49.956;20.130;2023-04-10T05:47:34;151.30;;;33.40;;
75012;SDS011;63567;49.956;20.130;2023-04-10T05:49:59;100.00;;;28.45;;
75012;SDS011;63567;49.956;20.130;2023-04-10T05:52:24;83.33;;;25.67;;
75012;SDS011;63567;49.956;20.130;2023-04-10T05:54:50;125.20;;;30.13;;
75012;SDS011;63567;49.956;20.130;2023-04-10T05:57:18;118.35;;;28.58;;
75012;SDS011;63567;49.956;20.130;2023-04-10T05:59:43;120.87;;;27.63;;
75012;SDS011;63567;49.956;20.130;2023-04-10T06:02:09;100.22;;;25.52;;
75012;SDS011;63567;49.956;20.130;2023-04-10T06:04:34;78.50;;;25.20;;
75012;SDS011;63567;49.956;20.130;2023-04-10T06:07:00;168.70;;;32.10;;
75012;SDS011;63567;49.956;20.130;2023-04-10T06:09:25;159.30;;;29.52;;
75012;SDS011;63567;49.956;20.130;2023-04-10T06:11:51;133.25;;;28.88;;
75012;SDS011;63567;49.956;20.130;2023-04-10T06:14:18;178.98;;;32.38;;
75012;SDS011;63567;49.956;20.130;2023-04-10T06:16:43;83.57;;;23.30;;
75012;SDS011;63567;49.956;20.130;2023-04-10T06:19:09;80.07;;;23.45;;
75012;SDS011;63567;49.956;20.130;2023-04-10T06:21:35;84.65;;;23.33;;
75012;SDS011;63567;49.956;20.130;2023-04-10T06:24:00;128.47;;;26.50;;
75012;SDS011;63567;49.956;20.130;2023-04-10T06:26:26;161.45;;;29.90;;
75012;SDS011;63567;49.956;20.130;2023-04-10T06:28:51;118.07;;;26.17;;
75012;SDS011;63567;49.956;20.130;2023-04-10T06:31:17;168.20;;;29.48;;
75012;SDS011;63567;49.956;20.130;2023-04-10T06:33:45;86.90;;;23.90;;
75012;SDS011;63567;49.956;20.130;2023-04-10T06:36:11;87.90;;;25.45;;
75012;SDS011;63567;49.956;20.130;2023-04-10T06:38:37;120.10;;;28.23;;
75012;SDS011;63567;49.956;20.130;2023-04-10T06:41:05;67.30;;;22.15;;
75012;SDS011;63567;49.956;20.130;2023-04-10T06:43:34;112.35;;;26.08;;
75012;SDS011;63567;49.956;20.130;2023-04-10T06:46:00;74.22;;;23.35;;
75012;SDS011;63567;49.956;20.130;2023-04-10T06:48:28;73.38;;;24.08;;
75012;SDS011;63567;49.956;20.130;2023-04-10T06:50:53;89.23;;;24.07;;
75012;SDS011;63567;49.956;20.130;2023-04-10T06:53:18;115.57;;;26.70;;
75012;SDS011;63567;49.956;20.130;2023-04-10T06:55:44;110.53;;;26.77;;
75012;SDS011;63567;49.956;20.130;2023-04-10T06:58:09;91.93;;;24.57;;
75012;SDS011;63567;49.956;20.130;2023-04-10T07:00:34;106.50;;;26.00;;
75012;SDS011;63567;49.956;20.130;2023-04-10T07:03:00;122.50;;;27.57;;
75012;SDS011;63567;49.956;20.130;2023-04-10T07:05:25;117.07;;;28.00;;
75012;SDS011;63567;49.956;20.130;2023-04-10T07:07:51;186.90;;;29.58;;
75012;SDS011;63567;49.956;20.130;2023-04-10T07:10:17;185.13;;;30.55;;
75012;SDS011;63567;49.956;20.130;2023-04-10T07:12:42;185.95;;;30.88;;
75012;SDS011;63567;49.956;20.130;2023-04-10T07:15:08;153.13;;;29.37;;
75012;SDS011;63567;49.956;20.130;2023-04-10T07:17:34;110.05;;;23.33;;
75012;SDS011;63567;49.956;20.130;2023-04-10T07:19:59;163.10;;;28.42;;
75012;SDS011;63567;49.956;20.130;2023-04-10T07:22:24;129.80;;;27.38;;
75012;SDS011;63567;49.956;20.130;2023-04-10T07:24:50;121.15;;;26.77;;
75012;SDS011;63567;49.956;20.130;2023-04-10T07:27:16;180.13;;;29.83;;
75012;SDS011;63567;49.956;20.130;2023-04-10T07:29:41;218.82;;;32.08;;
75012;SDS011;63567;49.956;20.130;2023-04-10T07:32:07;64.63;;;20.67;;
75012;SDS011;63567;49.956;20.130;2023-04-10T07:34:32;122.13;;;26.42;;
75012;SDS011;63567;49.956;20.130;2023-04-10T07:36:57;81.20;;;23.43;;
75012;SDS011;63567;49.956;20.130;2023-04-10T07:39:23;98.73;;;24.63;;
75012;SDS011;63567;49.956;20.130;2023-04-10T07:41:48;170.80;;;30.20;;
75012;SDS011;63567;49.956;20.130;2023-04-10T07:44:13;77.47;;;25.67;;
75012;SDS011;63567;49.956;20.130;2023-04-10T07:46:39;65.53;;;22.27;;
75012;SDS011;63567;49.956;20.130;2023-04-10T07:49:05;116.32;;;28.27;;
75012;SDS011;63567;49.956;20.130;2023-04-10T07:51:30;103.57;;;24.45;;
75012;SDS011;63567;49.956;20.130;2023-04-10T07:53:56;65.30;;;23.93;;
75012;SDS011;63567;49.956;20.130;2023-04-10T07:56:21;68.83;;;22.47;;
75012;SDS011;63567;49.956;20.130;2023-04-10T07:58:47;105.68;;;23.92;;
75012;SDS011;63567;49.956;20.130;2023-04-10T08:01:14;86.55;;;23.90;;
75012;SDS011;63567;49.956;20.130;2023-04-10T08:03:40;65.25;;;22.10;;
75012;SDS011;63567;49.956;20.130;2023-04-10T08:06:09;90.20;;;24.98;;
75012;SDS011;63567;49.956;20.130;2023-04-10T08:08:39;82.82;;;24.02;;
75012;SDS011;63567;49.956;20.130;2023-04-10T08:11:06;58.58;;;22.55;;
75012;SDS011;63567;49.956;20.130;2023-04-10T08:13:47;88.18;;;23.00;;
75012;SDS011;63567;49.956;20.130;2023-04-10T08:16:12;54.58;;;22.00;;
75012;SDS011;63567;49.956;20.130;2023-04-10T08:18:38;67.97;;;20.97;;
75012;SDS011;63567;49.956;20.130;2023-04-10T08:21:03;80.73;;;24.03;;
75012;SDS011;63567;49.956;20.130;2023-04-10T08:23:28;58.65;;;23.50;;
75012;SDS011;63567;49.956;20.130;2023-04-10T08:25:54;68.07;;;23.67;;
75012;SDS011;63567;49.956;20.130;2023-04-10T08:28:19;78.47;;;22.60;;
75012;SDS011;63567;49.956;20.130;2023-04-10T08:30:45;67.72;;;24.23;;
75012;SDS011;63567;49.956;20.130;2023-04-10T08:33:10;67.93;;;24.10;;
75012;SDS011;63567;49.956;20.130;2023-04-10T08:35:36;51.75;;;22.40;;
75012;SDS011;63567;49.956;20.130;2023-04-10T08:38:01;59.23;;;22.03;;
75012;SDS011;63567;49.956;20.130;2023-04-10T08:40:26;55.58;;;22.98;;
75012;SDS011;63567;49.956;20.130;2023-04-10T08:42:52;67.57;;;23.80;;
75012;SDS011;63567;49.956;20.130;2023-04-10T08:45:17;56.72;;;22.42;;
75012;SDS011;63567;49.956;20.130;2023-04-10T08:47:43;66.93;;;24.27;;
75012;SDS011;63567;49.956;20.130;2023-04-10T08:50:11;54.72;;;21.83;;
75012;SDS011;63567;49.956;20.130;2023-04-10T08:52:37;56.72;;;23.02;;
75012;SDS011;63567;49.956;20.130;2023-04-10T08:55:08;54.80;;;23.02;;
75012;SDS011;63567;49.956;20.130;2023-04-10T08:57:37;56.78;;;22.63;;
75012;SDS011;63567;49.956;20.130;2023-04-10T09:00:02;54.33;;;22.30;;
75012;SDS011;63567;49.956;20.130;2023-04-10T09:02:28;59.53;;;23.13;;
75012;SDS011;63567;49.956;20.130;2023-04-10T09:04:53;50.07;;;22.43;;
75012;SDS011;63567;49.956;20.130;2023-04-10T09:07:22;53.17;;;23.13;;
75012;SDS011;63567;49.956;20.130;2023-04-10T09:09:48;60.42;;;23.85;;
75012;SDS011;63567;49.956;20.130;2023-04-10T09:12:13;51.47;;;21.63;;
75012;SDS011;63567;49.956;20.130;2023-04-10T09:14:40;51.88;;;21.63;;
75012;SDS011;63567;49.956;20.130;2023-04-10T09:19:54;54.28;;;23.35;;
75012;SDS011;63567;49.956;20.130;2023-04-10T09:22:30;50.42;;;21.85;;
75012;SDS011;63567;49.956;20.130;2023-04-10T09:24:57;53.53;;;23.80;;
75012;SDS011;63567;49.956;20.130;2023-04-10T09:27:30;55.08;;;23.95;;
75012;SDS011;63567;49.956;20.130;2023-04-10T09:29:58;46.13;;;22.38;;
75012;SDS011;63567;49.956;20.130;2023-04-10T09:35:03;53.05;;;20.77;;
75012;SDS011;63567;49.956;20.130;2023-04-10T09:37:35;49.50;;;22.95;;
75012;SDS011;63567;49.956;20.130;2023-04-10T09:40:02;58.72;;;25.17;;
75012;SDS011;63567;49.956;20.130;2023-04-10T09:42:32;54.10;;;23.98;;
75012;SDS011;63567;49.956;20.130;2023-04-10T09:45:01;54.35;;;23.42;;
75012;SDS011;63567;49.956;20.130;2023-04-10T09:47:27;53.90;;;23.67;;
75012;SDS011;63567;49.956;20.130;2023-04-10T09:49:54;58.58;;;26.00;;
75012;SDS011;63567;49.956;20.130;2023-04-10T09:52:25;59.53;;;25.77;;
75012;SDS011;63567;49.956;20.130;2023-04-10T09:54:55;65.63;;;25.33;;
75012;SDS011;63567;49.956;20.130;2023-04-10T09:57:23;63.90;;;24.60;;
75012;SDS011;63567;49.956;20.130;2023-04-10T10:00:00;55.40;;;24.92;;
75012;SDS011;63567;49.956;20.130;2023-04-10T10:02:28;62.47;;;24.75;;
75012;SDS011;63567;49.956;20.130;2023-04-10T10:04:56;60.17;;;23.48;;
75012;SDS011;63567;49.956;20.130;2023-04-10T10:07:24;60.05;;;24.63;;
75012;SDS011;63567;49.956;20.130;2023-04-10T10:09:51;67.20;;;27.10;;
75012;SDS011;63567;49.956;20.130;2023-04-10T10:12:25;67.60;;;26.83;;
75012;SDS011;63567;49.956;20.130;2023-04-10T10:15:13;67.60;;;27.50;;
75012;SDS011;63567;49.956;20.130;2023-04-10T10:17:44;70.85;;;28.15;;
75012;SDS011;63567;49.956;20.130;2023-04-10T10:20:19;69.65;;;27.83;;
75012;SDS011;63567;49.956;20.130;2023-04-10T10:22:48;62.08;;;25.70;;
75012;SDS011;63567;49.956;20.130;2023-04-10T10:25:14;65.90;;;26.98;;
75012;SDS011;63567;49.956;20.130;2023-04-10T10:27:40;60.72;;;23.83;;
75012;SDS011;63567;49.956;20.130;2023-04-10T10:30:06;67.55;;;27.25;;
75012;SDS011;63567;49.956;20.130;2023-04-10T10:32:33;68.38;;;28.75;;
75012;SDS011;63567;49.956;20.130;2023-04-10T10:35:01;84.78;;;31.40;;
75012;SDS011;63567;49.956;20.130;2023-04-10T10:37:27;74.35;;;29.77;;
75012;SDS011;63567;49.956;20.130;2023-04-10T10:40:00;72.07;;;27.25;;
75012;SDS011;63567;49.956;20.130;2023-04-10T10:45:16;73.28;;;29.35;;
75012;SDS011;63567;49.956;20.130;2023-04-10T10:47:46;76.55;;;30.73;;
75012;SDS011;63567;49.956;20.130;2023-04-10T10:50:15;69.40;;;28.17;;
75012;SDS011;63567;49.956;20.130;2023-04-10T10:52:50;69.53;;;28.25;;
75012;SDS011;63567;49.956;20.130;2023-04-10T10:57:46;64.00;;;27.27;;
75012;SDS011;63567;49.956;20.130;2023-04-10T11:00:13;68.43;;;26.25;;
75012;SDS011;63567;49.956;20.130;2023-04-10T11:02:39;69.10;;;28.10;;
75012;SDS011;63567;49.956;20.130;2023-04-10T11:05:05;69.32;;;28.05;;
75012;SDS011;63567;49.956;20.130;2023-04-10T11:13:24;75.40;;;28.35;;
75012;SDS011;63567;49.956;20.130;2023-04-10T11:15:59;78.65;;;29.67;;
75012;SDS011;63567;49.956;20.130;2023-04-10T11:29:50;67.22;;;28.17;;
75012;SDS011;63567;49.956;20.130;2023-04-10T11:31:54;63.40;;;24.45;;
75012;SDS011;63567;49.956;20.130;2023-04-10T11:34:27;58.92;;;27.33;;
75012;SDS011;63567;49.956;20.130;2023-04-10T11:36:54;57.20;;;27.00;;
75012;SDS011;63567;49.956;20.130;2023-04-10T11:39:20;56.30;;;25.83;;
75012;SDS011;63567;49.956;20.130;2023-04-10T11:44:25;60.38;;;26.02;;
75012;SDS011;63567;49.956;20.130;2023-04-10T11:47:00;64.38;;;29.58;;
75012;SDS011;63567;49.956;20.130;2023-04-10T11:49:28;66.25;;;31.58;;
75012;SDS011;63567;49.956;20.130;2023-04-10T11:51:55;58.38;;;29.50;;
75012;SDS011;63567;49.956;20.130;2023-04-10T11:54:21;57.28;;;27.13;;
75012;SDS011;63567;49.956;20.130;2023-04-10T11:59:30;54.97;;;25.35;;
75012;SDS011;63567;49.956;20.130;2023-04-10T12:02:30;57.28;;;29.42;;
75012;SDS011;63567;49.956;20.130;2023-04-10T12:04:56;61.13;;;27.23;;
75012;SDS011;63567;49.956;20.130;2023-04-10T12:07:22;65.97;;;29.73;;
75012;SDS011;63567;49.956;20.130;2023-04-10T12:09:54;57.58;;;28.08;;
75012;SDS011;63567;49.956;20.130;2023-04-10T12:12:36;65.22;;;30.92;;
75012;SDS011;63567;49.956;20.130;2023-04-10T12:15:02;57.85;;;27.38;;
75012;SDS011;63567;49.956;20.130;2023-04-10T12:17:28;61.97;;;26.45;;
75012;SDS011;63567;49.956;20.130;2023-04-10T12:19:54;65.60;;;30.27;;
75012;SDS011;63567;49.956;20.130;2023-04-10T12:22:19;60.22;;;28.75;;
75012;SDS011;63567;49.956;20.130;2023-04-10T12:29:41;51.45;;;27.23;;
75012;SDS011;63567;49.956;20.130;2023-04-10T12:32:09;49.35;;;24.92;;
75012;SDS011;63567;49.956;20.130;2023-04-10T12:34:35;54.55;;;27.52;;
75012;SDS011;63567;49.956;20.130;2023-04-10T12:37:01;60.42;;;30.98;;
75012;SDS011;63567;49.956;20.130;2023-04-10T12:39:26;58.38;;;29.52;;
75012;SDS011;63567;49.956;20.130;2023-04-10T12:41:52;57.53;;;31.23;;
75012;SDS011;63567;49.956;20.130;2023-04-10T12:44:18;57.75;;;30.63;;
75012;SDS011;63567;49.956;20.130;2023-04-10T12:46:44;50.78;;;25.95;;
75012;SDS011;63567;49.956;20.130;2023-04-10T12:49:14;51.38;;;27.40;;
75012;SDS011;63567;49.956;20.130;2023-04-10T12:51:44;52.00;;;28.35;;
75012;SDS011;63567;49.956;20.130;2023-04-10T12:54:26;51.30;;;27.88;;
75012;SDS011;63567;49.956;20.130;2023-04-10T12:56:59;53.50;;;27.83;;
75012;SDS011;63567;49.956;20.130;2023-04-10T12:59:26;52.45;;;27.67;;
75012;SDS011;63567;49.956;20.130;2023-04-10T13:01:52;56.08;;;27.17;;
75012;SDS011;63567;49.956;20.130;2023-04-10T13:04:18;51.55;;;28.23;;
75012;SDS011;63567;49.956;20.130;2023-04-10T13:06:44;51.45;;;28.02;;
75012;SDS011;63567;49.956;20.130;2023-04-10T13:09:14;52.63;;;28.13;;
75012;SDS011;63567;49.956;20.130;2023-04-10T13:11:41;53.92;;;27.15;;
75012;SDS011;63567;49.956;20.130;2023-04-10T13:14:07;53.22;;;28.10;;
75012;SDS011;63567;49.956;20.130;2023-04-10T13:16:33;52.35;;;25.60;;
75012;SDS011;63567;49.956;20.130;2023-04-10T13:18:59;49.28;;;26.92;;
75012;SDS011;63567;49.956;20.130;2023-04-10T13:21:24;56.95;;;27.33;;
75012;SDS011;63567;49.956;20.130;2023-04-10T13:23:52;55.17;;;25.90;;
75012;SDS011;63567;49.956;20.130;2023-04-10T13:26:17;55.80;;;28.30;;
75012;SDS011;63567;49.956;20.130;2023-04-10T13:28:43;54.33;;;29.17;;
75012;SDS011;63567;49.956;20.130;2023-04-10T13:31:08;55.83;;;29.07;;
75012;SDS011;63567;49.956;20.130;2023-04-10T13:33:33;50.80;;;27.03;;
75012;SDS011;63567;49.956;20.130;2023-04-10T13:35:58;56.03;;;28.77;;
75012;SDS011;63567;49.956;20.130;2023-04-10T13:38:24;51.10;;;26.17;;
75012;SDS011;63567;49.956;20.130;2023-04-10T13:40:51;51.22;;;27.58;;
75012;SDS011;63567;49.956;20.130;2023-04-10T13:43:17;49.22;;;27.67;;
75012;SDS011;63567;49.956;20.130;2023-04-10T13:45:42;50.08;;;26.15;;
75012;SDS011;63567;49.956;20.130;2023-04-10T13:48:08;49.80;;;25.88;;
75012;SDS011;63567;49.956;20.130;2023-04-10T13:50:33;44.67;;;23.10;;
75012;SDS011;63567;49.956;20.130;2023-04-10T13:52:58;49.40;;;27.58;;
75012;SDS011;63567;49.956;20.130;2023-04-10T13:55:24;55.80;;;27.73;;
75012;SDS011;63567;49.956;20.130;2023-04-10T13:57:49;50.40;;;28.07;;
75012;SDS011;63567;49.956;20.130;2023-04-10T14:00:16;51.05;;;26.65;;
75012;SDS011;63567;49.956;20.130;2023-04-10T14:02:41;46.33;;;23.35;;
75012;SDS011;63567;49.956;20.130;2023-04-10T14:05:07;42.15;;;23.23;;
75012;SDS011;63567;49.956;20.130;2023-04-10T14:07:33;44.63;;;25.35;;
75012;SDS011;63567;49.956;20.130;2023-04-10T14:09:59;50.25;;;26.77;;
75012;SDS011;63567;49.956;20.130;2023-04-10T14:12:25;48.05;;;25.73;;
75012;SDS011;63567;49.956;20.130;2023-04-10T14:14:51;48.53;;;27.30;;
75012;SDS011;63567;49.956;20.130;2023-04-10T14:17:16;48.65;;;26.85;;
75012;SDS011;63567;49.956;20.130;2023-04-10T14:19:42;47.90;;;26.27;;
75012;SDS011;63567;49.956;20.130;2023-04-10T14:22:07;49.00;;;27.30;;
75012;SDS011;63567;49.956;20.130;2023-04-10T14:24:33;42.77;;;22.70;;
75012;SDS011;63567;49.956;20.130;2023-04-10T14:26:58;47.13;;;25.63;;
75012;SDS011;63567;49.956;20.130;2023-04-10T14:29:26;43.78;;;24.63;;
75012;SDS011;63567;49.956;20.130;2023-04-10T14:31:52;43.65;;;25.90;;
75012;SDS011;63567;49.956;20.130;2023-04-10T14:34:17;43.40;;;25.60;;
75012;SDS011;63567;49.956;20.130;2023-04-10T14:36:43;43.35;;;25.80;;
75012;SDS011;63567;49.956;20.130;2023-04-10T14:39:08;45.55;;;27.25;;
75012;SDS011;63567;49.956;20.130;2023-04-10T14:41:33;46.87;;;24.83;;
75012;SDS011;63567;49.956;20.130;2023-04-10T14:43:59;48.10;;;27.23;;
75012;SDS011;63567;49.956;20.130;2023-04-10T14:46:24;53.00;;;28.23;;
75012;SDS011;63567;49.956;20.130;2023-04-10T14:48:50;46.63;;;25.80;;
75012;SDS011;63567;49.956;20.130;2023-04-10T14:51:15;49.20;;;27.40;;
75012;SDS011;63567;49.956;20.130;2023-04-10T14:53:40;46.20;;;27.10;;
75012;SDS011;63567;49.956;20.130;2023-04-10T14:56:10;48.63;;;24.50;;